Observations

83.3 °F / 28.5 °C
ENE at 16 MPH gusting to 22 MPH
83%
77.9°F / 25.5 °C
29.84" (1010 mb)
10 mile(s)
mostly cloudy
2024.07.15 0900 UTC

Observations

Surface


Raw METARs

2024/07/15 09:00
PKWA 150900Z AUTO 07014G19KT 10SM SCT020 BKN026 29/26 A2984 RMK AO2 T02850255

Translated METAR

Kwajalein, Bucholz AAF, Kwajalein KMR ATOL Airport, Marshall Islands (PKWA) 08-43N 167-44E 2M
Jul 15, 2024 - 05:00 AM EDT / 2024.07.15 0900 UTC
Wind: from the ENE (070 degrees) at 16 MPH (14 KT) gusting to 22 MPH (19 KT):0
Visibility: 10 mile(s):0
Sky conditions: mostly cloudy
Temperature: 83.3 F (28.5 C)
Dew Point: 77.9 F (25.5 C)
Relative Humidity: 83%
Pressure (altimeter): 29.84 in. Hg (1010 hPa)
ob: PKWA 150900Z AUTO 07014G19KT 10SM SCT020 BKN026 29/26 A2984 RMK AO2 T02850255
cycle: 9



Upper Air


Latest Skew-T

Skew T Diagram

Latest Data File